sensor_id;sensor_type;location;lat;lon;timestamp;temperature;humidity
6810;DHT22;3443;48.812;9.112;2024-01-07T07:23:26;3.80;99.90
6810;DHT22;3443;48.812;9.112;2024-01-07T07:25:52;3.90;99.90
6810;DHT22;3443;48.812;9.112;2024-01-07T08:21:59;3.60;99.90
6810;DHT22;3443;48.812;9.112;2024-01-07T08:24:25;3.50;99.90
6810;DHT22;3443;48.812;9.112;2024-01-07T08:26:50;3.50;99.90
6810;DHT22;3443;48.812;9.112;2024-01-07T08:29:17;3.50;99.90
6810;DHT22;3443;48.812;9.112;2024-01-07T08:31:42;3.50;99.90
6810;DHT22;3443;48.812;9.112;2024-01-07T08:34:08;3.50;99.90
6810;DHT22;3443;48.812;9.112;2024-01-07T08:41:26;3.50;99.90
6810;DHT22;3443;48.812;9.112;2024-01-07T08:46:20;3.50;99.90
6810;DHT22;3443;48.812;9.112;2024-01-07T08:48:46;3.40;99.90
6810;DHT22;3443;48.812;9.112;2024-01-07T08:51:12;3.40;99.90
6810;DHT22;3443;48.812;9.112;2024-01-07T08:53:38;3.40;99.90
6810;DHT22;3443;48.812;9.112;2024-01-07T08:56:03;3.40;99.90
6810;DHT22;3443;48.812;9.112;2024-01-07T08:58:29;3.40;99.90
6810;DHT22;3443;48.812;9.112;2024-01-07T09:00:54;3.40;99.90
6810;DHT22;3443;48.812;9.112;2024-01-07T09:03:20;3.30;99.90
6810;DHT22;3443;48.812;9.112;2024-01-07T09:05:46;3.40;99.90
6810;DHT22;3443;48.812;9.112;2024-01-07T09:22:50;3.50;99.90
6810;DHT22;3443;48.812;9.112;2024-01-07T09:25:15;3.50;99.90
6810;DHT22;3443;48.812;9.112;2024-01-07T09:27:42;3.50;99.90
6810;DHT22;3443;48.812;9.112;2024-01-07T09:30:08;3.40;99.90
6810;DHT22;3443;48.812;9.112;2024-01-07T09:32:36;3.40;99.90
6810;DHT22;3443;48.812;9.112;2024-01-07T09:35:02;3.90;99.90
6810;DHT22;3443;48.812;9.112;2024-01-07T09:37:27;3.30;99.90
6810;DHT22;3443;48.812;9.112;2024-01-07T09:52:09;3.30;99.90
6810;DHT22;3443;48.812;9.112;2024-01-07T09:57:07;3.30;99.90
6810;DHT22;3443;48.812;9.112;2024-01-07T09:59:33;3.30;99.90
6810;DHT22;3443;48.812;9.112;2024-01-07T10:01:59;3.20;99.90
6810;DHT22;3443;48.812;9.112;2024-01-07T10:04:25;3.20;99.90
6810;DHT22;3443;48.812;9.112;2024-01-07T10:06:51;3.30;99.90
6810;DHT22;3443;48.812;9.112;2024-01-07T10:09:24;3.30;99.90
6810;DHT22;3443;48.812;9.112;2024-01-07T10:11:51;3.40;99.90
6810;DHT22;3443;48.812;9.112;2024-01-07T10:14:17;3.30;99.90
6810;DHT22;3443;48.812;9.112;2024-01-07T10:16:42;3.30;99.90
6810;DHT22;3443;48.812;9.112;2024-01-07T10:19:08;3.30;99.90
6810;DHT22;3443;48.812;9.112;2024-01-07T10:21:34;3.20;99.90
6810;DHT22;3443;48.812;9.112;2024-01-07T10:24:09;3.10;99.90
6810;DHT22;3443;48.812;9.112;2024-01-07T10:26:39;3.10;99.90
6810;DHT22;3443;48.812;9.112;2024-01-07T10:31:32;3.20;99.90
6810;DHT22;3443;48.812;9.112;2024-01-07T10:33:58;3.10;99.90
6810;DHT22;3443;48.812;9.112;2024-01-07T10:36:24;3.10;99.90
6810;DHT22;3443;48.812;9.112;2024-01-07T10:38:51;3.10;99.90
6810;DHT22;3443;48.812;9.112;2024-01-07T10:41:20;3.40;99.90
6810;DHT22;3443;48.812;9.112;2024-01-07T10:43:47;2.80;99.90
6810;DHT22;3443;48.812;9.112;2024-01-07T10:51:15;2.90;99.90
6810;DHT22;3443;48.812;9.112;2024-01-07T10:53:43;2.90;99.90
6810;DHT22;3443;48.812;9.112;2024-01-07T10:56:11;3.00;99.90
6810;DHT22;3443;48.812;9.112;2024-01-07T10:58:38;3.00;99.90
6810;DHT22;3443;48.812;9.112;2024-01-07T11:01:05;2.80;99.90
6810;DHT22;3443;48.812;9.112;2024-01-07T11:06:33;2.80;99.90
6810;DHT22;3443;48.812;9.112;2024-01-07T11:09:06;2.80;99.90
6810;DHT22;3443;48.812;9.112;2024-01-07T11:11:39;2.80;99.90
6810;DHT22;3443;48.812;9.112;2024-01-07T11:14:34;2.70;99.90
6810;DHT22;3443;48.812;9.112;2024-01-07T11:16:59;2.70;99.90
6810;DHT22;3443;48.812;9.112;2024-01-07T11:19:26;2.70;99.90
6810;DHT22;3443;48.812;9.112;2024-01-07T11:21:51;2.70;99.90
6810;DHT22;3443;48.812;9.112;2024-01-07T11:24:39;2.70;99.90
6810;DHT22;3443;48.812;9.112;2024-01-07T11:27:08;2.80;99.90
6810;DHT22;3443;48.812;9.112;2024-01-07T11:29:35;2.90;99.90
6810;DHT22;3443;48.812;9.112;2024-01-07T11:32:01;2.80;99.90
6810;DHT22;3443;48.812;9.112;2024-01-07T11:34:40;2.80;99.90
6810;DHT22;3443;48.812;9.112;2024-01-07T11:37:12;2.90;99.90
6810;DHT22;3443;48.812;9.112;2024-01-07T11:39:42;2.80;99.90
6810;DHT22;3443;48.812;9.112;2024-01-07T11:42:07;2.80;99.90
6810;DHT22;3443;48.812;9.112;2024-01-07T11:44:34;2.70;99.90
6810;DHT22;3443;48.812;9.112;2024-01-07T11:47:03;2.60;99.90
6810;DHT22;3443;48.812;9.112;2024-01-07T11:49:29;2.60;99.90
6810;DHT22;3443;48.812;9.112;2024-01-07T11:51:54;2.70;99.90
6810;DHT22;3443;48.812;9.112;2024-01-07T11:56:46;2.60;99.90
6810;DHT22;3443;48.812;9.112;2024-01-07T11:59:11;2.50;99.90
6810;DHT22;3443;48.812;9.112;2024-01-07T12:01:37;2.60;99.90
6810;DHT22;3443;48.812;9.112;2024-01-07T12:04:03;2.60;99.90
6810;DHT22;3443;48.812;9.112;2024-01-07T12:06:29;2.60;99.90
6810;DHT22;3443;48.812;9.112;2024-01-07T12:08:55;2.60;99.90
6810;DHT22;3443;48.812;9.112;2024-01-07T12:11:21;2.60;99.90
6810;DHT22;3443;48.812;9.112;2024-01-07T12:13:46;2.70;99.90
6810;DHT22;3443;48.812;9.112;2024-01-07T12:16:12;2.70;99.90
6810;DHT22;3443;48.812;9.112;2024-01-07T12:18:41;2.70;99.90
6810;DHT22;3443;48.812;9.112;2024-01-07T12:26:10;2.40;99.90
6810;DHT22;3443;48.812;9.112;2024-01-07T12:28:37;2.40;99.90
6810;DHT22;3443;48.812;9.112;2024-01-07T12:31:06;2.40;99.90
6810;DHT22;3443;48.812;9.112;2024-01-07T12:33:32;2.40;99.90
6810;DHT22;3443;48.812;9.112;2024-01-07T12:35:59;2.30;99.90
6810;DHT22;3443;48.812;9.112;2024-01-07T12:38:25;2.30;99.90
6810;DHT22;3443;48.812;9.112;2024-01-07T12:43:18;2.30;99.90
6810;DHT22;3443;48.812;9.112;2024-01-07T12:53:03;2.20;99.90
6810;DHT22;3443;48.812;9.112;2024-01-07T14:06:21;1.50;99.90
6810;DHT22;3443;48.812;9.112;2024-01-07T14:08:46;1.60;99.90
6810;DHT22;3443;48.812;9.112;2024-01-07T14:11:12;1.50;99.90
6810;DHT22;3443;48.812;9.112;2024-01-07T14:13:37;1.50;99.90
6810;DHT22;3443;48.812;9.112;2024-01-07T14:16:03;1.40;99.90
6810;DHT22;3443;48.812;9.112;2024-01-07T14:18:29;1.40;99.90
6810;DHT22;3443;48.812;9.112;2024-01-07T14:20:54;1.40;99.90
6810;DHT22;3443;48.812;9.112;2024-01-07T14:23:20;1.40;99.90
6810;DHT22;3443;48.812;9.112;2024-01-07T14:25:45;1.50;99.90
6810;DHT22;3443;48.812;9.112;2024-01-07T14:28:11;1.40;99.90
6810;DHT22;3443;48.812;9.112;2024-01-07T14:30:37;1.20;99.90
6810;DHT22;3443;48.812;9.112;2024-01-07T14:33:04;1.20;99.90
6810;DHT22;3443;48.812;9.112;2024-01-07T14:35:29;1.20;99.90
6810;DHT22;3443;48.812;9.112;2024-01-07T14:37:57;1.20;99.90
6810;DHT22;3443;48.812;9.112;2024-01-07T14:40:23;1.20;99.90
6810;DHT22;3443;48.812;9.112;2024-01-07T14:42:49;1.20;99.90
6810;DHT22;3443;48.812;9.112;2024-01-07T14:45:15;1.20;99.90
6810;DHT22;3443;48.812;9.112;2024-01-07T14:47:40;1.10;99.90
6810;DHT22;3443;48.812;9.112;2024-01-07T14:50:06;1.20;99.90
6810;DHT22;3443;48.812;9.112;2024-01-07T14:52:32;1.10;99.90
6810;DHT22;3443;48.812;9.112;2024-01-07T14:54:57;1.10;99.90
6810;DHT22;3443;48.812;9.112;2024-01-07T14:57:23;1.10;99.90
6810;DHT22;3443;48.812;9.112;2024-01-07T14:59:49;1.10;99.90
6810;DHT22;3443;48.812;9.112;2024-01-07T15:02:14;1.00;99.90
6810;DHT22;3443;48.812;9.112;2024-01-07T15:04:40;1.00;99.90
6810;DHT22;3443;48.812;9.112;2024-01-07T15:07:05;1.00;99.90
6810;DHT22;3443;48.812;9.112;2024-01-07T15:09:31;1.00;99.90
6810;DHT22;3443;48.812;9.112;2024-01-07T15:11:57;1.00;99.90
6810;DHT22;3443;48.812;9.112;2024-01-07T15:14:24;0.90;99.90
6810;DHT22;3443;48.812;9.112;2024-01-07T15:16:49;0.80;99.90
6810;DHT22;3443;48.812;9.112;2024-01-07T15:19:19;0.80;99.90
6810;DHT22;3443;48.812;9.112;2024-01-07T15:21:46;0.90;99.90
6810;DHT22;3443;48.812;9.112;2024-01-07T15:24:11;0.70;99.90
6810;DHT22;3443;48.812;9.112;2024-01-07T15:26:37;0.60;99.90
6810;DHT22;3443;48.812;9.112;2024-01-07T15:29:03;0.60;99.90
6810;DHT22;3443;48.812;9.112;2024-01-07T15:31:29;0.60;99.90
6810;DHT22;3443;48.812;9.112;2024-01-07T15:33:55;0.60;99.90
